Time;durP1;ratioP1;P1;durP2;ratioP2;P2;SDS_P1;SDS_P2;PMS_P1;PMS_P2;Temp;Humidity;BMP_temperature;BMP_pressure;BME280_temperature;BME280_humidity;BME280_pressure;Samples;Min_cycle;Max_cycle;Signal;HPM_P1;HPM_P2
2022/06/04 00:00:07;;;;;;;4.55;2.60;;;;;;;15.86;57.37;101740.34;4946424;29;20032;-84
2022/06/04 00:02:32;;;;;;;4.57;2.42;;;;;;;15.80;57.41;101732.91;4945126;29;20023;-84
2022/06/04 00:04:59;;;;;;;4.82;2.30;;;;;;;15.79;57.71;101744.47;4949858;28;20023;-83
2022/06/04 00:07:24;;;;;;;4.43;2.40;;;;;;;15.77;57.26;101733.16;4949281;28;20633;-83
2022/06/04 00:15:39;;;;;;;3.95;2.22;;;;;;;15.73;58.06;101715.78;4950094;29;20524;-83
2022/06/04 00:18:04;;;;;;;3.97;2.55;;;;;;;15.69;57.83;101730.28;4953443;28;20027;-83
2022/06/04 00:20:30;;;;;;;5.15;2.22;;;;;;;15.66;57.86;101729.56;4969397;28;20090;-83
2022/06/04 00:23:03;;;;;;;5.07;2.50;;;;;;;15.62;57.70;101728.13;4953074;29;20027;-84
2022/06/04 00:25:33;;;;;;;5.43;2.55;;;;;;;15.55;57.92;101726.88;4954750;28;20397;-83
2022/06/04 00:28:00;;;;;;;6.03;2.53;;;;;;;15.51;58.24;101736.06;4969803;28;20380;-83
2022/06/04 00:30:26;;;;;;;3.72;2.30;;;;;;;15.47;57.85;101739.94;4954296;28;20031;-83
2022/06/04 00:32:52;;;;;;;3.45;2.55;;;;;;;15.45;58.09;101741.84;4953914;28;20039;-83
2022/06/04 00:35:18;;;;;;;3.55;2.42;;;;;;;15.42;58.17;101744.75;4953929;28;20090;-83
2022/06/04 00:37:43;;;;;;;4.97;2.60;;;;;;;15.41;57.89;101745.72;4952726;28;20031;-83
2022/06/04 00:40:13;;;;;;;4.88;2.33;;;;;;;15.41;57.92;101743.06;4952767;29;20114;-83
2022/06/04 00:42:38;;;;;;;6.50;2.28;;;;;;;15.40;57.82;101737.91;4952024;29;20066;-83
2022/06/04 00:45:19;;;;;;;6.13;2.40;;;;;;;15.39;57.62;101730.91;4953743;28;20035;-83
2022/06/04 00:47:44;;;;;;;6.47;2.50;;;;;;;15.33;57.82;101727.78;4942412;28;20038;-83
2022/06/04 00:50:10;;;;;;;3.55;2.47;;;;;;;15.31;57.84;101734.19;4960145;28;20028;-83
2022/06/04 00:52:36;;;;;;;3.45;2.45;;;;;;;15.26;58.00;101744.31;4933318;29;20023;-83
2022/06/04 00:55:04;;;;;;;4.53;2.35;;;;;;;15.20;58.02;101745.59;4934882;29;20033;-83
2022/06/04 00:57:36;;;;;;;6.22;2.58;;;;;;;15.22;58.16;101750.81;4932341;29;20034;-83
2022/06/04 01:00:18;;;;;;;3.28;2.35;;;;;;;15.19;57.58;101751.03;4934096;29;20123;-83
2022/06/04 01:03:02;;;;;;;4.28;2.30;;;;;;;15.14;57.45;101756.69;4933699;29;20099;-84
2022/06/04 01:05:53;;;;;;;3.50;2.50;;;;;;;15.13;57.57;101767.44;4952852;28;20114;-83
2022/06/04 01:08:57;;;;;;;7.15;2.70;;;;;;;15.11;57.26;101774.66;4951975;28;20055;-84
2022/06/04 01:11:32;;;;;;;3.75;2.40;;;;;;;15.03;57.71;101783.22;4943887;29;20366;-84
2022/06/04 01:14:12;;;;;;;3.28;2.30;;;;;;;15.01;57.49;101772.72;4953763;28;20034;-83
2022/06/04 01:16:55;;;;;;;13.80;2.45;;;;;;;15.00;57.73;101771.03;4953899;29;20388;-84
2022/06/04 01:19:30;;;;;;;2.75;2.20;;;;;;;14.96;57.63;101772.25;4965012;28;20059;-83
2022/06/04 01:22:36;;;;;;;5.30;2.47;;;;;;;14.95;57.67;101775.88;4953676;29;20032;-83
2022/06/04 01:25:36;;;;;;;3.22;2.40;;;;;;;14.96;57.38;101777.56;4935214;28;20040;-83
2022/06/04 01:28:07;;;;;;;5.32;2.40;;;;;;;14.93;57.72;101785.75;4968352;28;20023;-83
2022/06/04 01:30:42;;;;;;;3.22;2.40;;;;;;;14.84;57.83;101786.47;4952050;28;20042;-84
2022/06/04 01:33:17;;;;;;;4.55;2.50;;;;;;;14.83;57.82;101783.94;4953218;28;20035;-84
2022/06/04 01:35:47;;;;;;;3.33;2.50;;;;;;;14.79;57.79;101780.63;4952047;29;20035;-83
2022/06/04 01:38:31;;;;;;;6.53;2.60;;;;;;;14.73;58.24;101786.41;4951906;29;20027;-83
2022/06/04 01:41:06;;;;;;;2.42;2.22;;;;;;;14.72;58.24;101782.06;4952696;28;20034;-83
2022/06/04 01:43:43;;;;;;;2.75;2.50;;;;;;;14.70;58.67;101781.34;4952252;28;20508;-83
2022/06/04 01:46:15;;;;;;;9.00;2.70;;;;;;;14.69;58.58;101795.56;4951739;29;20023;-83
2022/06/04 01:48:44;;;;;;;3.13;2.53;;;;;;;14.65;58.34;101799.41;4951829;28;20023;-83
2022/06/04 01:51:15;;;;;;;5.05;2.45;;;;;;;14.66;58.57;101811.69;4951426;28;20055;-83
2022/06/04 01:53:43;;;;;;;5.05;2.75;;;;;;;14.59;58.87;101815.75;4933509;28;20027;-83
2022/06/04 01:56:25;;;;;;;3.28;2.60;;;;;;;14.61;58.58;101819.97;4933058;29;20110;-83
2022/06/04 01:58:56;;;;;;;4.13;2.90;;;;;;;14.50;58.76;101822.59;4932964;29;20030;-84
2022/06/04 02:01:27;;;;;;;3.15;2.65;;;;;;;14.46;59.15;101818.50;4937823;29;20583;-83
2022/06/04 02:04:07;;;;;;;5.10;2.80;;;;;;;14.49;58.82;101814.78;4953778;28;20058;-83
2022/06/04 02:06:44;;;;;;;3.95;2.70;;;;;;;14.46;58.69;101812.34;4948425;29;20166;-85
2022/06/04 02:09:17;;;;;;;3.92;2.67;;;;;;;14.40;59.07;101813.59;4950670;28;20109;-83
2022/06/04 02:11:49;;;;;;;3.65;2.65;;;;;;;14.38;59.56;101816.38;4951675;28;20445;-83
2022/06/04 02:14:15;;;;;;;5.50;2.70;;;;;;;14.37;59.48;101817.31;4951306;29;20367;-83
2022/06/04 02:16:46;;;;;;;6.10;2.70;;;;;;;14.41;59.66;101818.81;4951670;28;20114;-83
2022/06/04 02:19:12;;;;;;;4.07;2.60;;;;;;;14.38;59.47;101824.31;4984694;28;20086;-83
2022/06/04 02:21:38;;;;;;;4.13;2.80;;;;;;;14.37;59.66;101822.63;4954006;28;20059;-83
2022/06/04 02:24:05;;;;;;;5.95;2.95;;;;;;;14.36;59.90;101820.94;4952869;28;20081;-83
2022/06/04 02:26:31;;;;;;;3.17;2.88;;;;;;;14.33;59.57;101821.16;4952662;28;20023;-84
2022/06/04 02:29:00;;;;;;;3.42;2.50;;;;;;;14.28;59.46;101818.00;4952950;28;20042;-83
2022/06/04 02:32:00;;;;;;;4.55;2.72;;;;;;;14.26;59.71;101813.78;4951973;28;20031;-83
2022/06/04 02:34:45;;;;;;;5.55;2.95;;;;;;;14.23;59.92;101809.56;4952863;28;20027;-83
2022/06/04 02:37:53;;;;;;;4.55;3.15;;;;;;;14.21;59.64;101805.34;4950953;29;20032;-83
2022/06/04 02:40:24;;;;;;;4.20;2.60;;;;;;;14.09;60.34;101804.47;4954021;28;20118;-84
2022/06/04 02:43:11;;;;;;;8.03;3.53;;;;;;;14.05;60.69;101795.06;4933979;29;20506;-84
2022/06/04 02:45:42;;;;;;;4.13;3.08;;;;;;;14.02;60.88;101796.13;4950562;28;20278;-83
2022/06/04 02:48:30;;;;;;;4.93;3.22;;;;;;;13.98;60.92;101778.75;4950522;29;20027;-83
2022/06/04 02:51:01;;;;;;;4.68;3.10;;;;;;;13.93;61.38;101774.75;4949826;29;20471;-85
2022/06/04 02:53:32;;;;;;;3.65;2.70;;;;;;;13.90;61.63;101764.41;4950248;29;20027;-83
2022/06/04 02:56:03;;;;;;;3.92;2.90;;;;;;;13.86;61.56;101758.50;4949737;28;20081;-83
2022/06/04 02:58:33;;;;;;;5.32;3.50;;;;;;;13.82;61.60;101756.19;4931698;29;20046;-83
2022/06/04 03:01:02;;;;;;;5.30;3.20;;;;;;;13.77;61.97;101751.25;4931965;29;20049;-84
2022/06/04 03:03:27;;;;;;;4.68;3.17;;;;;;;13.78;61.95;101745.84;4932410;29;20031;-84
2022/06/04 03:05:59;;;;;;;5.30;3.40;;;;;;;13.77;62.10;101746.78;4950858;28;20444;-84
2022/06/04 03:08:30;;;;;;;4.47;3.25;;;;;;;13.74;62.35;101744.38;4966088;28;20059;-84
2022/06/04 03:10:56;;;;;;;7.95;3.28;;;;;;;13.72;62.46;101746.28;4949738;29;20074;-84
2022/06/04 03:13:22;;;;;;;4.72;3.25;;;;;;;13.72;62.52;101746.28;4943150;28;20019;-83
2022/06/04 03:15:48;;;;;;;4.63;3.20;;;;;;;13.66;63.01;101744.09;4949655;29;20027;-84
2022/06/04 03:18:14;;;;;;;5.10;3.40;;;;;;;13.59;63.12;101748.13;4960444;28;20477;-84
2022/06/04 03:20:41;;;;;;;7.90;3.67;;;;;;;13.61;63.34;101754.16;4960365;28;20035;-84
2022/06/04 03:23:09;;;;;;;5.45;3.78;;;;;;;13.55;63.32;101749.28;4952455;28;20389;-84
2022/06/04 03:25:37;;;;;;;4.82;3.83;;;;;;;13.53;63.61;101756.50;4950842;28;20077;-86
2022/06/04 03:28:03;;;;;;;6.80;3.75;;;;;;;13.51;63.94;101752.28;4952147;28;20027;-84
2022/06/04 03:30:32;;;;;;;8.07;3.65;;;;;;;13.48;64.08;101753.34;4966139;28;20465;-84
2022/06/04 03:32:57;;;;;;;6.43;4.03;;;;;;;13.47;64.25;101733.13;4951397;28;20019;-84
2022/06/04 03:35:23;;;;;;;6.32;4.00;;;;;;;13.40;64.65;101751.25;4951775;28;20023;-86
2022/06/04 03:37:49;;;;;;;6.15;4.05;;;;;;;13.37;65.18;101750.63;4951246;28;20266;-84
2022/06/04 03:40:15;;;;;;;7.63;4.60;;;;;;;13.36;65.12;101748.94;4965781;28;20130;-84
2022/06/04 03:42:41;;;;;;;7.18;4.47;;;;;;;13.35;65.39;101753.38;4950316;29;20577;-84
2022/06/04 03:45:08;;;;;;;8.98;5.10;;;;;;;13.32;65.32;101760.69;4950889;28;20059;-84
2022/06/04 03:47:36;;;;;;;10.25;4.90;;;;;;;13.31;65.77;101772.22;4949487;29;20055;-84
2022/06/04 03:50:04;;;;;;;8.45;4.75;;;;;;;13.28;65.97;101761.84;4951276;29;20366;-84
2022/06/04 03:52:29;;;;;;;8.80;5.00;;;;;;;13.28;66.07;101759.22;4965442;28;20031;-83
2022/06/04 03:54:55;;;;;;;8.60;4.70;;;;;;;13.29;66.15;101767.03;4969160;28;20045;-83
2022/06/04 03:57:41;;;;;;;7.68;5.05;;;;;;;13.27;66.56;101766.28;4953277;29;20074;-84
2022/06/04 04:00:11;;;;;;;8.07;4.97;;;;;;;13.25;66.38;101772.66;4945194;28;20040;-83
2022/06/04 04:02:36;;;;;;;6.78;4.60;;;;;;;13.28;66.60;101777.72;4964650;28;20020;-83
2022/06/04 04:05:04;;;;;;;8.35;4.78;;;;;;;13.27;66.64;101781.31;4964585;28;20028;-83
2022/06/04 04:07:29;;;;;;;5.20;4.70;;;;;;;13.25;66.82;101772.66;4972196;28;20054;-83
2022/06/04 04:09:55;;;;;;;7.35;5.20;;;;;;;13.21;67.06;101782.59;4972898;28;20109;-83
2022/06/04 04:12:21;;;;;;;8.85;5.10;;;;;;;13.17;67.37;101774.00;4961239;28;20032;-83
2022/06/04 04:14:46;;;;;;;7.90;5.25;;;;;;;13.18;67.49;101780.97;4951454;29;20604;-86
2022/06/04 04:17:11;;;;;;;9.25;5.82;;;;;;;13.13;67.15;101791.00;4954351;28;20027;-83
2022/06/04 04:19:37;;;;;;;7.88;5.30;;;;;;;13.14;67.63;101800.59;4968488;28;20038;-82
2022/06/04 04:22:02;;;;;;;11.50;5.40;;;;;;;13.12;67.97;101788.47;4953916;28;20106;-83
2022/06/04 04:24:31;;;;;;;7.93;5.50;;;;;;;13.13;67.78;101784.88;4954197;28;20035;-83
2022/06/04 04:26:56;;;;;;;9.43;5.18;;;;;;;13.15;68.07;101796.16;4954560;28;20028;-83
2022/06/04 04:29:21;;;;;;;6.68;5.57;;;;;;;13.13;67.78;101796.28;4953342;28;20444;-83
2022/06/04 04:31:47;;;;;;;9.10;6.13;;;;;;;13.16;67.96;101805.78;4949147;29;20028;-83
2022/06/04 04:34:12;;;;;;;6.38;5.13;;;;;;;13.18;68.50;101796.84;4950065;29;20482;-83
2022/06/04 04:36:38;;;;;;;9.73;5.88;;;;;;;13.18;68.68;101804.75;4949450;29;20062;-83
2022/06/04 04:39:03;;;;;;;9.13;5.80;;;;;;;13.21;68.57;101810.78;4955175;28;20031;-83
2022/06/04 04:41:29;;;;;;;9.65;5.70;;;;;;;13.20;68.72;101809.94;4954553;28;20106;-83
2022/06/04 04:43:54;;;;;;;7.65;5.63;;;;;;;13.21;68.66;101819.59;4954276;29;20035;-83
2022/06/04 04:46:20;;;;;;;9.90;6.28;;;;;;;13.24;68.69;101826.47;4952872;29;20023;-83
2022/06/04 04:48:47;;;;;;;9.18;6.20;;;;;;;13.28;68.46;101825.28;4945186;29;20035;-82
2022/06/04 04:51:19;;;;;;;10.18;5.72;;;;;;;13.23;68.63;101825.59;4949457;29;20204;-83
2022/06/04 04:53:46;;;;;;;10.43;6.57;;;;;;;13.20;69.07;101827.59;4952275;29;20035;-83
2022/06/04 04:56:18;;;;;;;9.07;5.88;;;;;;;13.21;69.09;101831.94;4954632;28;20019;-83
2022/06/04 04:58:44;;;;;;;9.25;6.40;;;;;;;13.21;69.26;101827.50;4950549;28;20569;-83
2022/06/04 05:01:15;;;;;;;12.00;6.55;;;;;;;13.21;69.30;101831.94;4949728;29;20028;-83
2022/06/04 05:03:44;;;;;;;12.70;6.43;;;;;;;13.21;69.47;101829.28;4936559;28;20032;-83
2022/06/04 05:06:11;;;;;;;10.18;6.53;;;;;;;13.19;69.63;101832.03;4971823;28;20027;-82
2022/06/04 05:08:37;;;;;;;9.68;6.47;;;;;;;13.20;70.11;101830.22;4987798;28;20386;-83
2022/06/04 05:11:07;;;;;;;9.52;6.32;;;;;;;13.24;69.86;101834.38;4970761;28;20030;-83
2022/06/04 05:13:33;;;;;;;10.45;6.60;;;;;;;13.19;69.79;101826.75;4953437;29;20038;-83
2022/06/04 05:15:58;;;;;;;9.02;6.65;;;;;;;13.18;70.33;101828.53;4951201;29;20028;-83
2022/06/04 05:18:23;;;;;;;10.27;6.75;;;;;;;13.25;70.20;101836.06;4952164;28;20038;-83
2022/06/04 05:20:49;;;;;;;8.68;6.55;;;;;;;13.27;69.92;101835.00;4952449;28;20118;-83
2022/06/04 05:23:14;;;;;;;11.70;6.75;;;;;;;13.32;70.37;101832.91;4951409;29;20033;-83
2022/06/04 05:25:39;;;;;;;12.02;7.03;;;;;;;13.34;70.44;101835.44;4958263;28;20114;-83
2022/06/04 05:28:05;;;;;;;9.80;7.28;;;;;;;13.37;70.32;101837.84;4952663;29;20481;-82
2022/06/04 05:30:30;;;;;;;10.18;6.78;;;;;;;13.40;70.11;101842.94;4951058;29;20097;-82
2022/06/04 05:32:56;;;;;;;10.85;7.88;;;;;;;13.39;70.43;101849.16;4952166;28;20466;-83
2022/06/04 05:35:21;;;;;;;10.15;7.15;;;;;;;13.37;70.54;101851.06;4951306;29;20051;-83
2022/06/04 05:37:46;;;;;;;11.45;7.28;;;;;;;13.39;70.72;101849.16;4945918;28;20020;-83
2022/06/04 05:40:12;;;;;;;9.20;7.43;;;;;;;13.41;70.62;101852.56;4967444;28;20027;-83
2022/06/04 05:42:37;;;;;;;8.40;6.30;;;;;;;13.45;70.66;101859.31;4968806;28;20030;-82
2022/06/04 05:45:03;;;;;;;9.13;6.93;;;;;;;13.50;70.61;101857.19;4950747;28;20050;-83
2022/06/04 05:47:31;;;;;;;12.43;7.70;;;;;;;13.54;70.46;101858.66;4964586;28;20027;-83
2022/06/04 05:49:57;;;;;;;9.70;7.03;;;;;;;13.60;71.17;101852.94;4952737;28;20058;-83
2022/06/04 05:52:23;;;;;;;12.60;7.13;;;;;;;13.66;70.51;101863.09;4952665;28;20453;-82
2022/06/04 05:54:48;;;;;;;9.25;6.72;;;;;;;13.65;70.06;101860.56;4947698;29;20027;-82
2022/06/04 05:57:13;;;;;;;10.75;7.63;;;;;;;13.60;70.14;101857.38;4933601;29;20026;-82
2022/06/04 05:59:39;;;;;;;12.60;6.85;;;;;;;13.53;70.19;101862.25;4932234;29;20042;-83
2022/06/04 06:02:04;;;;;;;7.88;6.88;;;;;;;13.55;70.88;101864.78;4933771;29;20050;-83
2022/06/04 06:04:31;;;;;;;10.05;7.78;;;;;;;13.53;70.79;101862.25;4948521;28;20383;-83
2022/06/04 06:06:58;;;;;;;12.52;7.60;;;;;;;13.61;70.79;101873.16;4948844;28;20044;-83
2022/06/04 06:09:24;;;;;;;11.57;8.48;;;;;;;13.63;71.36;101865.97;4953104;28;20037;-83
2022/06/04 06:11:51;;;;;;;10.52;7.55;;;;;;;13.67;70.74;101862.16;4952253;28;20023;-83
2022/06/04 06:14:18;;;;;;;10.27;7.30;;;;;;;13.71;70.95;101868.91;4953240;28;20027;-83
2022/06/04 06:16:47;;;;;;;12.65;7.43;;;;;;;13.78;70.59;101856.09;4951559;28;20019;-83
2022/06/04 06:19:15;;;;;;;11.40;7.90;;;;;;;13.82;70.11;101856.72;4968121;28;20030;-83
2022/06/04 06:21:41;;;;;;;14.50;7.85;;;;;;;13.82;70.00;101856.72;4951146;28;20027;-79
2022/06/04 06:24:08;;;;;;;9.77;7.35;;;;;;;13.89;70.42;101863.25;4952719;28;20034;-79
2022/06/04 06:26:41;;;;;;;13.65;8.23;;;;;;;13.97;70.13;101860.91;4951702;28;20042;-79
2022/06/04 06:29:06;;;;;;;8.75;7.30;;;;;;;13.99;70.01;101864.28;4965671;28;20027;-79
2022/06/04 06:31:33;;;;;;;10.10;7.50;;;;;;;14.06;70.47;101869.03;4940941;29;20036;-79
2022/06/04 06:33:59;;;;;;;9.25;7.22;;;;;;;14.12;70.05;101875.69;4948021;28;20085;-79
2022/06/04 06:36:24;;;;;;;11.40;7.80;;;;;;;14.08;69.79;101876.88;4970027;28;20035;-79
2022/06/04 06:38:50;;;;;;;11.80;8.20;;;;;;;14.19;70.01;101882.22;4963807;28;20034;-79
2022/06/04 06:41:19;;;;;;;12.82;8.18;;;;;;;14.26;68.91;101883.47;4969364;28;20026;-78
2022/06/04 06:43:49;;;;;;;11.55;8.40;;;;;;;14.22;68.78;101887.28;4967078;28;20019;-83
2022/06/04 06:46:23;;;;;;;11.13;8.38;;;;;;;14.31;69.26;101881.31;4965331;28;20440;-79
2022/06/04 06:48:52;;;;;;;11.75;7.57;;;;;;;14.39;69.39;101886.91;4950827;28;20169;-80
2022/06/04 06:51:17;;;;;;;11.68;8.38;;;;;;;14.43;68.99;101890.22;4950818;28;20058;-79
2022/06/04 06:53:42;;;;;;;11.38;8.20;;;;;;;14.38;68.55;101893.16;4947421;28;20460;-79
2022/06/04 06:56:19;;;;;;;11.07;8.23;;;;;;;14.40;68.49;101888.59;4949635;28;20027;-79
2022/06/04 06:58:45;;;;;;;12.10;8.73;;;;;;;14.36;68.46;101895.06;4949795;28;20408;-79
2022/06/04 07:01:11;;;;;;;11.52;8.50;;;;;;;14.30;68.42;101895.50;4948534;28;20023;-79
2022/06/04 07:03:38;;;;;;;11.93;9.20;;;;;;;14.33;69.37;101890.00;4950108;28;20453;-79
2022/06/04 07:06:05;;;;;;;12.00;8.85;;;;;;;14.35;68.91;101887.22;4970532;28;20085;-79
2022/06/04 07:08:30;;;;;;;15.95;9.75;;;;;;;14.30;69.01;101878.78;4970098;28;20094;-79
2022/06/04 07:10:56;;;;;;;12.82;9.57;;;;;;;14.29;69.29;101891.19;4969080;28;20493;-80
2022/06/04 07:13:21;;;;;;;14.75;9.77;;;;;;;14.30;69.02;101890.22;4951509;28;20114;-79
2022/06/04 07:15:47;;;;;;;17.05;11.07;;;;;;;14.30;68.94;101890.22;4975408;28;20535;-79
2022/06/04 07:18:14;;;;;;;14.50;10.48;;;;;;;14.28;69.44;101886.84;4959861;28;20054;-79
2022/06/04 07:20:40;;;;;;;15.10;9.52;;;;;;;14.36;69.51;101894.22;4956983;28;20109;-78
2022/06/04 07:23:06;;;;;;;13.18;9.27;;;;;;;14.40;69.12;101893.88;4970489;28;20029;-79
2022/06/04 07:25:32;;;;;;;14.82;9.70;;;;;;;14.40;68.72;101895.69;4950832;28;20474;-79
2022/06/04 07:27:58;;;;;;;11.85;9.85;;;;;;;14.39;68.74;101894.84;4953624;28;20031;-79
2022/06/04 07:30:23;;;;;;;11.73;10.00;;;;;;;14.49;69.60;101894.22;4953303;28;20099;-80
2022/06/04 07:32:49;;;;;;;13.43;9.75;;;;;;;14.49;68.57;101900.34;4946806;28;20532;-80
2022/06/04 07:35:14;;;;;;;15.00;9.57;;;;;;;14.52;68.30;101899.28;4949011;28;20031;-79
2022/06/04 07:37:41;;;;;;;12.77;10.13;;;;;;;14.55;68.91;101905.19;4949575;28;20031;-78
2022/06/04 07:40:07;;;;;;;12.50;9.55;;;;;;;14.52;68.15;101915.19;4962410;28;20030;-81
2022/06/04 07:42:32;;;;;;;16.33;10.00;;;;;;;14.59;68.48;101914.59;4960087;28;20055;-79
2022/06/04 07:44:58;;;;;;;17.15;10.38;;;;;;;14.67;68.56;101917.53;4949023;28;20087;-79
2022/06/04 07:47:24;;;;;;;14.65;10.35;;;;;;;14.65;68.39;101915.94;4948831;28;20027;-79
2022/06/04 07:49:50;;;;;;;12.32;10.10;;;;;;;14.60;67.95;101912.81;4944877;28;20031;-79
2022/06/04 07:52:15;;;;;;;14.30;10.30;;;;;;;14.63;68.68;101917.88;4940932;29;20036;-80
2022/06/04 07:54:41;;;;;;;13.07;9.85;;;;;;;14.69;68.15;101906.81;4936427;28;20535;-80
2022/06/04 07:57:07;;;;;;;15.90;9.88;;;;;;;14.70;68.29;101908.50;4942354;28;20556;-79
2022/06/04 07:59:32;;;;;;;11.57;9.40;;;;;;;14.71;67.68;101912.84;4937218;29;20687;-82
2022/06/04 08:01:57;;;;;;;12.77;9.30;;;;;;;14.68;67.69;101908.63;4940278;29;20063;-82
2022/06/04 08:04:23;;;;;;;15.27;10.05;;;;;;;14.69;67.78;101907.66;4947603;28;20102;-82
2022/06/04 08:06:48;;;;;;;12.75;9.70;;;;;;;14.70;67.86;101908.50;4946283;29;20408;-82
2022/06/04 08:09:13;;;;;;;14.48;9.48;;;;;;;14.65;67.89;101910.66;4954446;28;20028;-79
2022/06/04 08:11:39;;;;;;;12.98;10.30;;;;;;;14.67;68.80;101909.59;4943186;29;20055;-79
2022/06/04 08:14:07;;;;;;;16.30;10.57;;;;;;;14.69;68.68;101912.13;4945098;29;20019;-79
2022/06/04 08:16:37;;;;;;;13.05;10.15;;;;;;;14.70;68.02;101908.50;4951957;28;20393;-79
2022/06/04 08:19:03;;;;;;;13.75;9.88;;;;;;;14.79;68.32;101905.16;4943879;28;20034;-79
2022/06/04 08:21:30;;;;;;;12.63;9.88;;;;;;;14.86;68.19;101902.94;4932031;28;20016;-79
2022/06/04 08:23:55;;;;;;;15.18;10.40;;;;;;;14.92;68.02;101897.16;4929238;29;20490;-79
2022/06/04 08:26:21;;;;;;;13.43;10.43;;;;;;;14.96;67.78;101901.25;4950257;29;20023;-79
2022/06/04 08:28:46;;;;;;;13.55;10.73;;;;;;;14.89;67.38;101892.94;4949968;28;20027;-79
2022/06/04 08:31:14;;;;;;;14.38;10.55;;;;;;;14.87;67.96;101884.25;4965938;28;20039;-80
2022/06/04 08:33:39;;;;;;;11.75;10.07;;;;;;;14.92;68.06;101882.09;4947941;29;20158;-79
2022/06/04 08:36:06;;;;;;;13.98;10.20;;;;;;;14.95;67.56;101892.47;4950966;29;20482;-78
2022/06/04 08:38:33;;;;;;;16.08;10.25;;;;;;;15.03;67.72;101898.03;4951285;28;20062;-78
2022/06/04 08:41:01;;;;;;;15.60;10.82;;;;;;;15.03;67.21;101895.38;4950958;28;20019;-78
2022/06/04 08:43:45;;;;;;;16.30;10.32;;;;;;;15.14;66.88;101894.56;4953493;28;20034;-78
2022/06/04 08:46:16;;;;;;;15.50;9.85;;;;;;;15.29;67.48;101892.56;4953204;28;20031;-78
2022/06/04 08:48:43;;;;;;;13.27;10.15;;;;;;;15.42;66.64;101895.09;4953526;28;20031;-79
2022/06/04 08:51:29;;;;;;;14.70;10.30;;;;;;;15.73;65.76;101904.19;4963321;28;20542;-79
2022/06/04 08:53:57;;;;;;;22.00;11.60;;;;;;;16.18;64.66;101884.59;4971851;28;20525;-81
2022/06/04 08:59:31;;;;;;;13.35;9.88;;;;;;;16.98;62.30;101909.94;4953025;28;20414;-77
2022/06/04 09:02:00;;;;;;;14.02;9.48;;;;;;;16.97;61.55;101913.56;4952958;28;20038;-79
2022/06/04 09:04:50;;;;;;;17.58;9.20;;;;;;;16.98;61.43;101916.09;4958824;28;20106;-78
2022/06/04 09:07:28;;;;;;;14.52;9.93;;;;;;;17.05;61.11;101905.78;4949692;28;20043;-78
2022/06/04 09:10:14;;;;;;;14.15;10.05;;;;;;;17.06;61.17;101907.47;4950815;28;20485;-79
2022/06/04 09:12:43;;;;;;;16.48;9.63;;;;;;;17.11;61.24;101905.25;4950467;28;20114;-77
2022/06/04 09:15:19;;;;;;;13.15;9.95;;;;;;;17.12;61.32;101906.94;4952682;28;20035;-78
2022/06/04 09:17:48;;;;;;;14.68;9.98;;;;;;;17.22;60.10;101910.53;4955388;28;20117;-78
2022/06/04 09:20:43;;;;;;;13.23;9.48;;;;;;;17.44;60.54;101907.69;4971905;28;20022;-79
2022/06/04 09:23:22;;;;;;;10.93;9.23;;;;;;;17.50;60.13;101907.16;4971919;28;20046;-79
2022/06/04 09:25:58;;;;;;;12.93;9.82;;;;;;;17.59;59.99;101904.69;4970223;28;20034;-79
2022/06/04 09:28:45;;;;;;;13.40;10.30;;;;;;;17.63;59.87;101906.97;4971658;28;20030;-79
2022/06/04 09:32:00;;;;;;;11.73;9.80;;;;;;;17.73;60.13;101912.38;4971707;28;20038;-79
2022/06/04 09:34:36;;;;;;;15.10;9.93;;;;;;;17.73;59.92;101904.38;4950644;28;20043;-79
2022/06/04 09:37:04;;;;;;;12.93;9.93;;;;;;;17.90;59.84;101893.06;4961425;28;20041;-79
2022/06/04 09:39:32;;;;;;;13.35;10.35;;;;;;;18.34;59.22;101904.25;4986316;28;20030;-79
2022/06/04 09:42:13;;;;;;;11.75;10.55;;;;;;;18.60;57.80;101904.56;4971433;28;20081;-79
2022/06/04 09:44:51;;;;;;;14.65;9.75;;;;;;;18.59;56.60;101909.06;4972168;28;20130;-79
2022/06/04 09:47:20;;;;;;;11.05;9.75;;;;;;;18.49;56.89;101913.56;4952685;28;20031;-80
2022/06/04 09:49:54;;;;;;;11.93;9.68;;;;;;;18.39;56.92;101910.00;4951994;28;20023;-77
2022/06/04 09:52:38;;;;;;;12.13;9.80;;;;;;;18.33;57.10;101916.72;4952671;28;20495;-77
2022/06/04 09:55:24;;;;;;;12.88;10.30;;;;;;;18.23;57.99;101909.72;4952845;28;20038;-77
2022/06/04 09:58:21;;;;;;;12.30;10.10;;;;;;;18.33;58.13;101910.56;4949114;28;20027;-78
2022/06/04 10:00:58;;;;;;;11.75;10.02;;;;;;;18.42;57.91;101910.59;4949676;28;20143;-79
2022/06/04 10:03:23;;;;;;;11.55;10.35;;;;;;;18.47;57.59;101910.19;4952025;28;20023;-80
2022/06/04 10:06:24;;;;;;;11.38;10.18;;;;;;;18.66;57.90;101918.22;4968855;28;20046;-80
2022/06/04 10:11:47;;;;;;;15.75;10.35;;;;;;;19.31;54.67;101929.13;4963582;28;20047;-79
2022/06/04 10:14:13;;;;;;;14.50;9.90;;;;;;;19.34;55.30;101924.34;4949848;28;20027;-80
2022/06/04 10:16:41;;;;;;;10.85;9.52;;;;;;;19.31;54.47;101918.44;4965694;28;20097;-80
2022/06/04 10:19:12;;;;;;;13.23;10.45;;;;;;;19.19;54.96;101924.91;4966383;28;20393;-80
2022/06/04 10:21:41;;;;;;;12.70;9.95;;;;;;;19.18;55.44;101918.72;4984419;28;20497;-80
2022/06/04 10:24:31;;;;;;;12.88;10.05;;;;;;;19.24;55.54;101918.19;4985348;28;20031;-80
2022/06/04 10:27:36;;;;;;;14.05;10.38;;;;;;;19.24;55.75;101918.19;4970541;28;20051;-80
2022/06/04 10:30:05;;;;;;;13.50;10.60;;;;;;;19.23;55.80;101919.16;4948903;29;20494;-80
2022/06/04 10:33:01;;;;;;;12.57;9.90;;;;;;;19.37;55.71;101924.03;4961870;28;20121;-80
2022/06/04 10:35:53;;;;;;;13.65;10.63;;;;;;;19.41;55.53;101927.25;4969943;28;20034;-80
2022/06/04 10:38:35;;;;;;;13.00;10.57;;;;;;;19.59;54.42;101914.88;4969494;28;20054;-80
2022/06/04 10:41:13;;;;;;;11.85;10.40;;;;;;;19.79;54.72;101917.47;4970617;28;20031;-80
2022/06/04 10:44:08;;;;;;;13.80;11.40;;;;;;;19.91;54.29;101922.47;4967796;28;20110;-80
2022/06/04 10:46:45;;;;;;;13.75;10.82;;;;;;;20.38;52.96;101917.00;4968471;28;20447;-80
2022/06/04 10:49:39;;;;;;;15.50;10.50;;;;;;;20.83;53.19;101926.84;4985376;28;20026;-80
2022/06/04 10:52:45;;;;;;;12.20;10.90;;;;;;;21.09;51.85;101929.53;4971106;28;20161;-80
2022/06/04 10:55:16;;;;;;;12.63;11.07;;;;;;;21.18;50.81;101926.78;4949579;29;20444;-80
2022/06/04 10:57:54;;;;;;;12.38;9.73;;;;;;;21.65;51.22;101918.41;4948401;29;20039;-80
2022/06/04 11:00:29;;;;;;;14.18;10.82;;;;;;;22.06;49.93;101918.63;4961278;28;20046;-80
2022/06/04 11:03:00;;;;;;;15.82;10.88;;;;;;;22.09;48.82;101908.41;4970214;28;20027;-80
2022/06/04 11:05:39;;;;;;;13.52;10.90;;;;;;;22.13;49.02;101915.13;4955886;28;20074;-80
2022/06/04 11:08:11;;;;;;;13.40;10.02;;;;;;;22.10;48.60;101920.81;4948257;28;20070;-79
2022/06/04 11:10:45;;;;;;;13.80;10.63;;;;;;;22.25;50.29;101907.59;4948793;28;20068;-80
2022/06/04 11:13:13;;;;;;;14.02;9.95;;;;;;;22.30;48.05;101916.00;4950345;28;20027;-80
2022/06/04 11:15:42;;;;;;;12.95;10.48;;;;;;;22.05;47.71;101925.00;4948486;28;20045;-77
2022/06/04 11:18:21;;;;;;;12.73;10.23;;;;;;;21.84;48.64;101930.72;4957015;28;20038;-76
2022/06/04 11:20:53;;;;;;;12.00;10.73;;;;;;;21.72;49.10;101922.13;4967773;28;20069;-76
2022/06/04 11:23:44;;;;;;;13.57;10.80;;;;;;;21.94;49.67;101919.88;4969395;28;20556;-77
2022/06/04 11:26:21;;;;;;;14.02;10.75;;;;;;;22.00;48.98;101921.91;4955607;28;20037;-76
2022/06/04 11:28:47;;;;;;;15.32;11.45;;;;;;;21.97;48.20;101919.53;4948452;28;20026;-77
2022/06/04 11:31:23;;;;;;;17.38;10.27;;;;;;;21.92;48.46;101912.00;4949761;28;20485;-77
2022/06/04 11:33:54;;;;;;;15.73;10.55;;;;;;;21.87;48.79;101917.00;4949700;28;20213;-77
2022/06/04 11:36:43;;;;;;;14.50;10.15;;;;;;;22.01;49.72;101910.16;4949049;28;20035;-76
2022/06/04 11:39:30;;;;;;;15.13;11.18;;;;;;;21.86;49.58;101905.44;4949727;28;20555;-76
2022/06/04 11:42:06;;;;;;;14.65;10.95;;;;;;;21.87;49.06;101903.59;4948827;28;20031;-76
2022/06/04 11:44:50;;;;;;;12.15;10.60;;;;;;;22.05;49.65;101893.66;4949705;28;20030;-77
2022/06/04 11:47:29;;;;;;;17.23;10.82;;;;;;;;;;4949502;28;20441;-76
2022/06/04 11:50:05;;;;;;;11.98;10.45;;;;;;;22.51;48.12;101883.38;4949094;28;20027;-77